sensor_id;sensor_type;location;lat;lon;timestamp;temperature;humidity
13440;DHT22;6792;57.698;11.946;2023-04-25T00:00:48;18.00;50.30
13440;DHT22;6792;57.698;11.946;2023-04-25T00:03:17;18.00;50.40
13440;DHT22;6792;57.698;11.946;2023-04-25T00:05:47;17.90;50.40
13440;DHT22;6792;57.698;11.946;2023-04-25T00:08:17;17.90;50.60
13440;DHT22;6792;57.698;11.946;2023-04-25T00:10:47;17.90;50.70
13440;DHT22;6792;57.698;11.946;2023-04-25T00:13:18;17.90;50.80
13440;DHT22;6792;57.698;11.946;2023-04-25T00:15:48;17.80;50.30
13440;DHT22;6792;57.698;11.946;2023-04-25T00:18:18;17.80;50.90
13440;DHT22;6792;57.698;11.946;2023-04-25T00:20:48;17.80;50.90
13440;DHT22;6792;57.698;11.946;2023-04-25T00:23:17;17.70;50.90
13440;DHT22;6792;57.698;11.946;2023-04-25T00:25:48;17.70;51.00
13440;DHT22;6792;57.698;11.946;2023-04-25T00:28:17;17.70;51.70
13440;DHT22;6792;57.698;11.946;2023-04-25T00:30:47;17.70;51.20
13440;DHT22;6792;57.698;11.946;2023-04-25T00:33:16;17.70;51.30
13440;DHT22;6792;57.698;11.946;2023-04-25T00:35:47;17.70;51.30
13440;DHT22;6792;57.698;11.946;2023-04-25T00:38:17;17.70;51.30
13440;DHT22;6792;57.698;11.946;2023-04-25T00:40:46;17.70;51.30
13440;DHT22;6792;57.698;11.946;2023-04-25T00:43:15;17.70;51.30
13440;DHT22;6792;57.698;11.946;2023-04-25T00:45:44;17.60;51.30
13440;DHT22;6792;57.698;11.946;2023-04-25T00:48:15;17.60;51.50
13440;DHT22;6792;57.698;11.946;2023-04-25T00:50:49;17.60;51.00
13440;DHT22;6792;57.698;11.946;2023-04-25T00:53:19;17.50;51.50
13440;DHT22;6792;57.698;11.946;2023-04-25T00:55:48;17.50;51.00
13440;DHT22;6792;57.698;11.946;2023-04-25T00:58:18;17.50;51.60
13440;DHT22;6792;57.698;11.946;2023-04-25T01:00:49;17.50;51.70
13440;DHT22;6792;57.698;11.946;2023-04-25T01:03:19;17.40;51.70
13440;DHT22;6792;57.698;11.946;2023-04-25T01:05:49;17.40;51.80
13440;DHT22;6792;57.698;11.946;2023-04-25T01:08:18;17.40;52.00
13440;DHT22;6792;57.698;11.946;2023-04-25T01:10:49;17.40;52.00
13440;DHT22;6792;57.698;11.946;2023-04-25T01:13:18;17.40;52.10
13440;DHT22;6792;57.698;11.946;2023-04-25T01:15:48;17.40;52.10
13440;DHT22;6792;57.698;11.946;2023-04-25T01:18:20;17.40;52.10
13440;DHT22;6792;57.698;11.946;2023-04-25T01:20:52;17.40;52.20
13440;DHT22;6792;57.698;11.946;2023-04-25T01:23:22;17.40;52.20
13440;DHT22;6792;57.698;11.946;2023-04-25T01:25:51;17.40;52.20
13440;DHT22;6792;57.698;11.946;2023-04-25T01:28:21;17.50;52.20
13440;DHT22;6792;57.698;11.946;2023-04-25T01:30:51;17.40;52.20
13440;DHT22;6792;57.698;11.946;2023-04-25T01:33:23;17.40;52.80
13440;DHT22;6792;57.698;11.946;2023-04-25T01:35:52;17.40;52.30
13440;DHT22;6792;57.698;11.946;2023-04-25T01:38:22;17.40;52.90
13440;DHT22;6792;57.698;11.946;2023-04-25T01:40:52;17.50;52.50
13440;DHT22;6792;57.698;11.946;2023-04-25T01:43:22;17.50;52.40
13440;DHT22;6792;57.698;11.946;2023-04-25T01:45:51;17.40;52.40
13440;DHT22;6792;57.698;11.946;2023-04-25T01:48:21;17.40;52.40
13440;DHT22;6792;57.698;11.946;2023-04-25T01:50:50;17.40;52.40
13440;DHT22;6792;57.698;11.946;2023-04-25T01:53:19;17.40;52.40
13440;DHT22;6792;57.698;11.946;2023-04-25T01:55:48;17.40;52.60
13440;DHT22;6792;57.698;11.946;2023-04-25T01:58:18;17.40;52.50
13440;DHT22;6792;57.698;11.946;2023-04-25T02:00:47;17.40;52.00
13440;DHT22;6792;57.698;11.946;2023-04-25T02:03:16;17.50;52.60
13440;DHT22;6792;57.698;11.946;2023-04-25T02:05:48;17.50;52.60
13440;DHT22;6792;57.698;11.946;2023-04-25T02:08:17;17.50;52.60
13440;DHT22;6792;57.698;11.946;2023-04-25T02:10:48;17.40;52.50
13440;DHT22;6792;57.698;11.946;2023-04-25T02:13:18;17.40;52.50
13440;DHT22;6792;57.698;11.946;2023-04-25T02:15:47;17.40;51.90
13440;DHT22;6792;57.698;11.946;2023-04-25T02:18:16;17.40;52.50
13440;DHT22;6792;57.698;11.946;2023-04-25T02:20:49;17.40;52.50
13440;DHT22;6792;57.698;11.946;2023-04-25T02:23:18;17.40;51.90
13440;DHT22;6792;57.698;11.946;2023-04-25T02:25:50;17.40;52.50
13440;DHT22;6792;57.698;11.946;2023-04-25T02:28:20;17.40;52.60
13440;DHT22;6792;57.698;11.946;2023-04-25T02:30:49;17.40;52.60
13440;DHT22;6792;57.698;11.946;2023-04-25T02:33:19;17.40;52.50
13440;DHT22;6792;57.698;11.946;2023-04-25T02:35:48;17.40;52.50
13440;DHT22;6792;57.698;11.946;2023-04-25T02:38:18;17.40;52.50
13440;DHT22;6792;57.698;11.946;2023-04-25T02:40:47;17.40;52.50
13440;DHT22;6792;57.698;11.946;2023-04-25T02:43:19;17.40;52.50
13440;DHT22;6792;57.698;11.946;2023-04-25T02:45:48;17.40;52.50
13440;DHT22;6792;57.698;11.946;2023-04-25T02:48:17;17.40;52.50
13440;DHT22;6792;57.698;11.946;2023-04-25T02:50:47;17.40;52.50
13440;DHT22;6792;57.698;11.946;2023-04-25T02:53:18;17.40;52.50
13440;DHT22;6792;57.698;11.946;2023-04-25T02:55:48;17.40;52.50
13440;DHT22;6792;57.698;11.946;2023-04-25T02:58:17;17.40;52.50
13440;DHT22;6792;57.698;11.946;2023-04-25T03:00:46;17.40;52.50
13440;DHT22;6792;57.698;11.946;2023-04-25T03:03:15;17.30;52.40
13440;DHT22;6792;57.698;11.946;2023-04-25T03:05:46;17.30;52.40
13440;DHT22;6792;57.698;11.946;2023-04-25T03:08:16;17.30;52.40
13440;DHT22;6792;57.698;11.946;2023-04-25T03:10:45;17.30;52.40
13440;DHT22;6792;57.698;11.946;2023-04-25T03:13:17;17.30;52.50
13440;DHT22;6792;57.698;11.946;2023-04-25T03:15:46;17.30;52.50
13440;DHT22;6792;57.698;11.946;2023-04-25T03:18:16;17.30;52.50
13440;DHT22;6792;57.698;11.946;2023-04-25T03:20:45;17.30;52.50
13440;DHT22;6792;57.698;11.946;2023-04-25T03:23:15;17.30;52.60
13440;DHT22;6792;57.698;11.946;2023-04-25T03:25:44;17.30;52.60
13440;DHT22;6792;57.698;11.946;2023-04-25T03:28:13;17.30;52.60
13440;DHT22;6792;57.698;11.946;2023-04-25T03:30:42;17.30;52.00
13440;DHT22;6792;57.698;11.946;2023-04-25T03:33:11;17.30;52.60
13440;DHT22;6792;57.698;11.946;2023-04-25T03:35:41;17.30;52.50
13440;DHT22;6792;57.698;11.946;2023-04-25T03:38:11;17.20;52.50
13440;DHT22;6792;57.698;11.946;2023-04-25T03:40:40;17.20;52.60
13440;DHT22;6792;57.698;11.946;2023-04-25T03:43:09;17.30;52.60
13440;DHT22;6792;57.698;11.946;2023-04-25T03:45:38;17.30;52.50
13440;DHT22;6792;57.698;11.946;2023-04-25T03:48:08;17.20;52.50
13440;DHT22;6792;57.698;11.946;2023-04-25T03:50:37;17.20;52.60
13440;DHT22;6792;57.698;11.946;2023-04-25T03:53:06;17.30;52.50
13440;DHT22;6792;57.698;11.946;2023-04-25T03:55:35;17.30;52.50
13440;DHT22;6792;57.698;11.946;2023-04-25T03:58:04;17.20;52.50
13440;DHT22;6792;57.698;11.946;2023-04-25T04:00:34;17.20;52.60
13440;DHT22;6792;57.698;11.946;2023-04-25T04:03:03;17.20;52.50
13440;DHT22;6792;57.698;11.946;2023-04-25T04:05:32;17.20;52.60
13440;DHT22;6792;57.698;11.946;2023-04-25T04:08:01;17.20;52.60
13440;DHT22;6792;57.698;11.946;2023-04-25T04:10:31;17.20;52.10
13440;DHT22;6792;57.698;11.946;2023-04-25T04:13:00;17.20;52.60
13440;DHT22;6792;57.698;11.946;2023-04-25T04:15:29;17.20;52.70
13440;DHT22;6792;57.698;11.946;2023-04-25T04:18:02;17.20;52.70
13440;DHT22;6792;57.698;11.946;2023-04-25T04:20:32;17.20;52.70
13440;DHT22;6792;57.698;11.946;2023-04-25T04:23:01;17.20;52.70
13440;DHT22;6792;57.698;11.946;2023-04-25T04:25:30;17.10;52.70
13440;DHT22;6792;57.698;11.946;2023-04-25T04:28:00;17.10;52.70
13440;DHT22;6792;57.698;11.946;2023-04-25T04:30:29;17.10;52.20
13440;DHT22;6792;57.698;11.946;2023-04-25T04:32:59;17.10;52.80
13440;DHT22;6792;57.698;11.946;2023-04-25T04:35:29;17.10;52.80
13440;DHT22;6792;57.698;11.946;2023-04-25T04:37:58;17.10;52.30
13440;DHT22;6792;57.698;11.946;2023-04-25T04:40:28;17.00;52.80
13440;DHT22;6792;57.698;11.946;2023-04-25T04:42:58;17.00;52.80
13440;DHT22;6792;57.698;11.946;2023-04-25T04:45:27;17.00;52.90
13440;DHT22;6792;57.698;11.946;2023-04-25T04:47:56;17.00;52.90
13440;DHT22;6792;57.698;11.946;2023-04-25T04:50:25;17.00;52.90
13440;DHT22;6792;57.698;11.946;2023-04-25T04:52:55;17.00;52.90
13440;DHT22;6792;57.698;11.946;2023-04-25T04:55:24;17.00;52.90
13440;DHT22;6792;57.698;11.946;2023-04-25T04:57:53;17.00;52.90
13440;DHT22;6792;57.698;11.946;2023-04-25T05:00:22;17.00;53.10
13440;DHT22;6792;57.698;11.946;2023-04-25T05:02:51;17.00;53.00
13440;DHT22;6792;57.698;11.946;2023-04-25T05:05:21;17.00;53.00
13440;DHT22;6792;57.698;11.946;2023-04-25T05:07:50;17.00;53.00
13440;DHT22;6792;57.698;11.946;2023-04-25T05:10:20;17.00;53.00
13440;DHT22;6792;57.698;11.946;2023-04-25T05:12:49;16.90;53.00
13440;DHT22;6792;57.698;11.946;2023-04-25T05:15:18;16.90;53.00
13440;DHT22;6792;57.698;11.946;2023-04-25T05:17:47;16.90;53.10
13440;DHT22;6792;57.698;11.946;2023-04-25T05:20:17;16.90;53.10
13440;DHT22;6792;57.698;11.946;2023-04-25T05:22:47;16.90;53.10
13440;DHT22;6792;57.698;11.946;2023-04-25T05:25:16;16.90;53.20
13440;DHT22;6792;57.698;11.946;2023-04-25T05:27:47;16.90;53.10
13440;DHT22;6792;57.698;11.946;2023-04-25T05:30:35;16.90;53.20
13440;DHT22;6792;57.698;11.946;2023-04-25T05:33:04;16.90;53.20
13440;DHT22;6792;57.698;11.946;2023-04-25T05:35:33;16.90;53.20
13440;DHT22;6792;57.698;11.946;2023-04-25T05:38:02;16.90;53.20
13440;DHT22;6792;57.698;11.946;2023-04-25T05:40:31;16.90;53.20
13440;DHT22;6792;57.698;11.946;2023-04-25T05:43:00;16.90;53.30
13440;DHT22;6792;57.698;11.946;2023-04-25T05:45:30;16.90;53.30
13440;DHT22;6792;57.698;11.946;2023-04-25T05:47:59;16.90;53.30
13440;DHT22;6792;57.698;11.946;2023-04-25T05:50:28;16.90;53.30
13440;DHT22;6792;57.698;11.946;2023-04-25T05:52:57;16.90;53.30
13440;DHT22;6792;57.698;11.946;2023-04-25T05:55:27;16.90;53.30
13440;DHT22;6792;57.698;11.946;2023-04-25T05:57:56;16.90;53.30
13440;DHT22;6792;57.698;11.946;2023-04-25T06:00:25;16.90;52.80
13440;DHT22;6792;57.698;11.946;2023-04-25T06:02:55;16.90;53.30
13440;DHT22;6792;57.698;11.946;2023-04-25T06:05:24;16.90;53.30
13440;DHT22;6792;57.698;11.946;2023-04-25T06:07:53;16.90;53.50
13440;DHT22;6792;57.698;11.946;2023-04-25T06:10:22;16.90;53.40
13440;DHT22;6792;57.698;11.946;2023-04-25T06:12:52;16.90;53.40
13440;DHT22;6792;57.698;11.946;2023-04-25T06:15:21;16.80;53.30
13440;DHT22;6792;57.698;11.946;2023-04-25T06:17:50;16.80;53.30
13440;DHT22;6792;57.698;11.946;2023-04-25T06:20:19;16.80;54.00
13440;DHT22;6792;57.698;11.946;2023-04-25T06:22:51;16.80;53.40
13440;DHT22;6792;57.698;11.946;2023-04-25T06:25:21;16.80;53.40
13440;DHT22;6792;57.698;11.946;2023-04-25T06:27:50;16.80;53.40
13440;DHT22;6792;57.698;11.946;2023-04-25T06:30:19;16.70;53.30
13440;DHT22;6792;57.698;11.946;2023-04-25T06:32:50;16.70;53.20
13440;DHT22;6792;57.698;11.946;2023-04-25T06:35:21;16.60;53.20
13440;DHT22;6792;57.698;11.946;2023-04-25T06:37:50;16.60;53.30
13440;DHT22;6792;57.698;11.946;2023-04-25T06:40:19;16.60;53.30
13440;DHT22;6792;57.698;11.946;2023-04-25T06:42:48;16.60;53.30
13440;DHT22;6792;57.698;11.946;2023-04-25T06:45:18;16.60;53.30
13440;DHT22;6792;57.698;11.946;2023-04-25T06:47:47;16.50;53.20
13440;DHT22;6792;57.698;11.946;2023-04-25T06:50:18;16.50;53.40
13440;DHT22;6792;57.698;11.946;2023-04-25T06:52:47;16.50;53.10
13440;DHT22;6792;57.698;11.946;2023-04-25T06:55:18;16.50;53.10
13440;DHT22;6792;57.698;11.946;2023-04-25T06:57:47;16.50;53.20
13440;DHT22;6792;57.698;11.946;2023-04-25T07:00:18;16.40;52.50
13440;DHT22;6792;57.698;11.946;2023-04-25T07:02:47;16.30;53.00
13440;DHT22;6792;57.698;11.946;2023-04-25T07:05:18;16.30;53.00
13440;DHT22;6792;57.698;11.946;2023-04-25T07:07:47;16.30;53.00
13440;DHT22;6792;57.698;11.946;2023-04-25T07:10:16;16.20;52.90
13440;DHT22;6792;57.698;11.946;2023-04-25T07:12:45;16.20;53.00
13440;DHT22;6792;57.698;11.946;2023-04-25T07:15:15;16.20;53.20
13440;DHT22;6792;57.698;11.946;2023-04-25T07:17:47;16.20;53.20
13440;DHT22;6792;57.698;11.946;2023-04-25T07:20:16;16.10;53.10
13440;DHT22;6792;57.698;11.946;2023-04-25T07:22:45;16.10;53.10
13440;DHT22;6792;57.698;11.946;2023-04-25T07:25:14;16.10;53.00
13440;DHT22;6792;57.698;11.946;2023-04-25T07:27:44;16.00;52.90
13440;DHT22;6792;57.698;11.946;2023-04-25T07:30:15;16.00;52.90
13440;DHT22;6792;57.698;11.946;2023-04-25T07:32:44;16.00;52.90
13440;DHT22;6792;57.698;11.946;2023-04-25T07:35:14;16.00;52.90
13440;DHT22;6792;57.698;11.946;2023-04-25T07:37:44;16.00;52.90
13440;DHT22;6792;57.698;11.946;2023-04-25T07:40:19;15.90;52.80
13440;DHT22;6792;57.698;11.946;2023-04-25T07:42:48;16.20;53.00
13440;DHT22;6792;57.698;11.946;2023-04-25T07:45:17;16.00;52.90
13440;DHT22;6792;57.698;11.946;2023-04-25T07:47:47;16.00;53.00
13440;DHT22;6792;57.698;11.946;2023-04-25T07:50:16;16.00;52.90
13440;DHT22;6792;57.698;11.946;2023-04-25T07:52:47;16.00;52.90
13440;DHT22;6792;57.698;11.946;2023-04-25T07:55:16;15.90;52.80
13440;DHT22;6792;57.698;11.946;2023-04-25T07:57:46;15.90;52.80
13440;DHT22;6792;57.698;11.946;2023-04-25T08:00:16;15.90;52.80
13440;DHT22;6792;57.698;11.946;2023-04-25T08:02:48;15.90;53.30
13440;DHT22;6792;57.698;11.946;2023-04-25T08:05:19;15.80;52.70
13440;DHT22;6792;57.698;11.946;2023-04-25T08:07:50;15.80;52.70
13440;DHT22;6792;57.698;11.946;2023-04-25T08:10:19;15.90;52.30
13440;DHT22;6792;57.698;11.946;2023-04-25T08:12:50;15.90;52.80
13440;DHT22;6792;57.698;11.946;2023-04-25T08:15:20;15.80;52.70
13440;DHT22;6792;57.698;11.946;2023-04-25T08:17:49;15.80;52.60
13440;DHT22;6792;57.698;11.946;2023-04-25T08:20:18;15.80;52.60
13440;DHT22;6792;57.698;11.946;2023-04-25T08:22:47;15.80;52.40
13440;DHT22;6792;57.698;11.946;2023-04-25T08:25:17;15.80;52.40
13440;DHT22;6792;57.698;11.946;2023-04-25T08:27:48;15.80;52.40
13440;DHT22;6792;57.698;11.946;2023-04-25T08:30:20;15.80;52.30
13440;DHT22;6792;57.698;11.946;2023-04-25T08:32:49;15.80;52.50
13440;DHT22;6792;57.698;11.946;2023-04-25T08:35:19;15.70;52.30
13440;DHT22;6792;57.698;11.946;2023-04-25T08:37:48;15.70;52.20
13440;DHT22;6792;57.698;11.946;2023-04-25T08:40:20;15.70;52.20
13440;DHT22;6792;57.698;11.946;2023-04-25T08:45:35;15.70;51.70
13440;DHT22;6792;57.698;11.946;2023-04-25T08:50:35;15.70;51.50
13440;DHT22;6792;57.698;11.946;2023-04-25T08:53:05;15.70;52.10
13440;DHT22;6792;57.698;11.946;2023-04-25T08:55:37;15.70;51.90
13440;DHT22;6792;57.698;11.946;2023-04-25T08:58:09;15.60;51.90
13440;DHT22;6792;57.698;11.946;2023-04-25T09:00:38;15.60;52.00
13440;DHT22;6792;57.698;11.946;2023-04-25T09:03:07;15.60;52.00
13440;DHT22;6792;57.698;11.946;2023-04-25T09:05:37;15.60;52.00
13440;DHT22;6792;57.698;11.946;2023-04-25T09:08:06;15.60;51.90
13440;DHT22;6792;57.698;11.946;2023-04-25T09:10:36;15.60;51.90
13440;DHT22;6792;57.698;11.946;2023-04-25T09:13:06;15.60;51.80
13440;DHT22;6792;57.698;11.946;2023-04-25T09:15:48;15.60;51.70
13440;DHT22;6792;57.698;11.946;2023-04-25T09:18:24;15.50;51.70
13440;DHT22;6792;57.698;11.946;2023-04-25T09:20:54;15.50;51.70
13440;DHT22;6792;57.698;11.946;2023-04-25T09:23:24;15.60;51.80
13440;DHT22;6792;57.698;11.946;2023-04-25T09:25:54;15.50;51.50
13440;DHT22;6792;57.698;11.946;2023-04-25T09:28:26;15.50;51.40
13440;DHT22;6792;57.698;11.946;2023-04-25T09:30:57;15.50;51.50
13440;DHT22;6792;57.698;11.946;2023-04-25T09:33:31;15.50;51.50
13440;DHT22;6792;57.698;11.946;2023-04-25T09:36:06;15.50;51.50
13440;DHT22;6792;57.698;11.946;2023-04-25T09:38:42;15.50;51.50
13440;DHT22;6792;57.698;11.946;2023-04-25T09:41:12;15.40;51.50
13440;DHT22;6792;57.698;11.946;2023-04-25T09:43:42;15.40;51.50
13440;DHT22;6792;57.698;11.946;2023-04-25T09:46:13;15.50;51.40
13440;DHT22;6792;57.698;11.946;2023-04-25T09:48:49;15.50;51.40
13440;DHT22;6792;57.698;11.946;2023-04-25T09:51:18;15.50;51.40
13440;DHT22;6792;57.698;11.946;2023-04-25T09:53:48;15.50;51.30
13440;DHT22;6792;57.698;11.946;2023-04-25T09:56:20;15.50;51.20
13440;DHT22;6792;57.698;11.946;2023-04-25T09:58:51;15.50;51.20
13440;DHT22;6792;57.698;11.946;2023-04-25T10:01:22;15.50;51.00
13440;DHT22;6792;57.698;11.946;2023-04-25T10:03:53;15.50;51.00
13440;DHT22;6792;57.698;11.946;2023-04-25T10:06:25;15.50;51.00
13440;DHT22;6792;57.698;11.946;2023-04-25T10:08:56;15.40;50.30
13440;DHT22;6792;57.698;11.946;2023-04-25T10:11:27;15.40;51.00
13440;DHT22;6792;57.698;11.946;2023-04-25T10:13:57;15.50;51.00
13440;DHT22;6792;57.698;11.946;2023-04-25T10:16:26;15.50;50.80
13440;DHT22;6792;57.698;11.946;2023-04-25T10:18:56;15.60;50.70
13440;DHT22;6792;57.698;11.946;2023-04-25T10:21:27;15.60;50.60
13440;DHT22;6792;57.698;11.946;2023-04-25T10:23:58;15.60;50.60
13440;DHT22;6792;57.698;11.946;2023-04-25T10:26:28;15.60;50.20
13440;DHT22;6792;57.698;11.946;2023-04-25T10:28:59;15.60;50.40
13440;DHT22;6792;57.698;11.946;2023-04-25T10:31:30;15.60;50.30
13440;DHT22;6792;57.698;11.946;2023-04-25T10:34:01;15.60;50.20
13440;DHT22;6792;57.698;11.946;2023-04-25T10:36:32;15.70;50.20
13440;DHT22;6792;57.698;11.946;2023-04-25T10:39:05;15.70;50.10
13440;DHT22;6792;57.698;11.946;2023-04-25T10:41:48;15.70;49.90
13440;DHT22;6792;57.698;11.946;2023-04-25T10:44:18;15.70;49.90
13440;DHT22;6792;57.698;11.946;2023-04-25T10:46:48;15.70;49.80
13440;DHT22;6792;57.698;11.946;2023-04-25T10:52:27;15.70;49.20
13440;DHT22;6792;57.698;11.946;2023-04-25T10:54:58;15.60;49.60
13440;DHT22;6792;57.698;11.946;2023-04-25T10:57:29;15.60;49.60
13440;DHT22;6792;57.698;11.946;2023-04-25T11:00:18;15.60;49.70
13440;DHT22;6792;57.698;11.946;2023-04-25T11:02:51;15.60;49.00
13440;DHT22;6792;57.698;11.946;2023-04-25T11:05:27;15.60;49.00
13440;DHT22;6792;57.698;11.946;2023-04-25T11:07:55;15.60;49.50
13440;DHT22;6792;57.698;11.946;2023-04-25T11:10:27;15.60;49.00
13440;DHT22;6792;57.698;11.946;2023-04-25T11:12:57;15.60;48.90
13440;DHT22;6792;57.698;11.946;2023-04-25T11:15:27;15.50;49.30
13440;DHT22;6792;57.698;11.946;2023-04-25T11:17:57;15.50;48.70
13440;DHT22;6792;57.698;11.946;2023-04-25T11:20:27;15.50;49.30
13440;DHT22;6792;57.698;11.946;2023-04-25T11:22:58;15.50;49.20
13440;DHT22;6792;57.698;11.946;2023-04-25T11:25:29;15.40;49.10
13440;DHT22;6792;57.698;11.946;2023-04-25T11:27:59;15.30;49.10
13440;DHT22;6792;57.698;11.946;2023-04-25T11:30:29;15.30;49.20
13440;DHT22;6792;57.698;11.946;2023-04-25T11:32:59;15.30;48.70
13440;DHT22;6792;57.698;11.946;2023-04-25T11:35:28;15.40;49.40
13440;DHT22;6792;57.698;11.946;2023-04-25T11:37:57;15.40;49.50
13440;DHT22;6792;57.698;11.946;2023-04-25T11:40:27;15.40;49.50
13440;DHT22;6792;57.698;11.946;2023-04-25T11:42:56;15.40;49.40
13440;DHT22;6792;57.698;11.946;2023-04-25T11:45:28;15.50;49.40
13440;DHT22;6792;57.698;11.946;2023-04-25T11:47:58;15.50;49.30
13440;DHT22;6792;57.698;11.946;2023-04-25T11:50:29;15.50;49.30
13440;DHT22;6792;57.698;11.946;2023-04-25T11:52:58;15.50;49.30
13440;DHT22;6792;57.698;11.946;2023-04-25T11:55:29;15.40;49.10
13440;DHT22;6792;57.698;11.946;2023-04-25T11:58:00;15.30;49.00
13440;DHT22;6792;57.698;11.946;2023-04-25T12:00:30;15.30;49.10
13440;DHT22;6792;57.698;11.946;2023-04-25T12:02:59;15.20;49.10
13440;DHT22;6792;57.698;11.946;2023-04-25T12:05:31;15.20;48.60
13440;DHT22;6792;57.698;11.946;2023-04-25T12:08:14;15.20;49.20
13440;DHT22;6792;57.698;11.946;2023-04-25T12:13:27;15.20;48.80
13440;DHT22;6792;57.698;11.946;2023-04-25T12:15:58;15.20;49.30
13440;DHT22;6792;57.698;11.946;2023-04-25T12:18:29;15.20;49.30
13440;DHT22;6792;57.698;11.946;2023-04-25T12:20:59;15.30;49.30
13440;DHT22;6792;57.698;11.946;2023-04-25T12:23:28;15.30;49.30
13440;DHT22;6792;57.698;11.946;2023-04-25T12:25:58;15.30;49.20
13440;DHT22;6792;57.698;11.946;2023-04-25T12:28:27;15.30;49.70
13440;DHT22;6792;57.698;11.946;2023-04-25T12:30:59;15.30;49.10
13440;DHT22;6792;57.698;11.946;2023-04-25T12:33:30;15.20;49.00
13440;DHT22;6792;57.698;11.946;2023-04-25T12:36:01;15.20;49.00
13440;DHT22;6792;57.698;11.946;2023-04-25T12:38:36;15.20;49.00
13440;DHT22;6792;57.698;11.946;2023-04-25T12:41:06;15.20;48.40
13440;DHT22;6792;57.698;11.946;2023-04-25T12:43:36;15.10;49.00
13440;DHT22;6792;57.698;11.946;2023-04-25T12:46:08;15.10;48.90
13440;DHT22;6792;57.698;11.946;2023-04-25T12:48:37;15.10;48.40
13440;DHT22;6792;57.698;11.946;2023-04-25T12:51:06;15.20;49.00
13440;DHT22;6792;57.698;11.946;2023-04-25T12:53:36;15.20;48.90
13440;DHT22;6792;57.698;11.946;2023-04-25T12:56:08;15.10;48.70
13440;DHT22;6792;57.698;11.946;2023-04-25T12:58:37;15.10;48.70
13440;DHT22;6792;57.698;11.946;2023-04-25T13:01:06;15.10;48.80
13440;DHT22;6792;57.698;11.946;2023-04-25T13:03:36;15.10;48.80
13440;DHT22;6792;57.698;11.946;2023-04-25T13:06:06;15.10;48.90
13440;DHT22;6792;57.698;11.946;2023-04-25T13:08:35;15.00;48.70
13440;DHT22;6792;57.698;11.946;2023-04-25T13:11:07;15.00;48.70
13440;DHT22;6792;57.698;11.946;2023-04-25T13:13:37;15.00;48.70
13440;DHT22;6792;57.698;11.946;2023-04-25T13:16:08;15.00;48.70
13440;DHT22;6792;57.698;11.946;2023-04-25T13:18:38;14.90;48.70
13440;DHT22;6792;57.698;11.946;2023-04-25T13:21:08;15.00;48.80
13440;DHT22;6792;57.698;11.946;2023-04-25T13:23:38;15.00;48.20
13440;DHT22;6792;57.698;11.946;2023-04-25T13:26:08;14.90;48.10
13440;DHT22;6792;57.698;11.946;2023-04-25T13:28:38;14.90;48.00
13440;DHT22;6792;57.698;11.946;2023-04-25T13:31:08;14.90;48.60
13440;DHT22;6792;57.698;11.946;2023-04-25T13:33:37;14.90;48.70
13440;DHT22;6792;57.698;11.946;2023-04-25T13:36:07;14.90;48.60
13440;DHT22;6792;57.698;11.946;2023-04-25T13:38:36;14.90;48.60
13440;DHT22;6792;57.698;11.946;2023-04-25T13:41:06;14.90;48.50
13440;DHT22;6792;57.698;11.946;2023-04-25T13:43:36;14.90;48.00
13440;DHT22;6792;57.698;11.946;2023-04-25T13:46:05;14.80;48.50
13440;DHT22;6792;57.698;11.946;2023-04-25T13:48:34;14.80;48.50
13440;DHT22;6792;57.698;11.946;2023-04-25T13:51:04;14.80;48.70
13440;DHT22;6792;57.698;11.946;2023-04-25T13:53:33;14.80;48.70
13440;DHT22;6792;57.698;11.946;2023-04-25T13:56:02;14.70;48.80
13440;DHT22;6792;57.698;11.946;2023-04-25T13:58:32;14.70;48.80
13440;DHT22;6792;57.698;11.946;2023-04-25T14:01:01;14.70;48.80
13440;DHT22;6792;57.698;11.946;2023-04-25T14:03:32;14.70;48.80
13440;DHT22;6792;57.698;11.946;2023-04-25T14:06:01;14.70;48.70
13440;DHT22;6792;57.698;11.946;2023-04-25T14:08:30;14.70;48.80
13440;DHT22;6792;57.698;11.946;2023-04-25T14:10:59;14.60;48.70
13440;DHT22;6792;57.698;11.946;2023-04-25T14:13:29;14.60;48.80
13440;DHT22;6792;57.698;11.946;2023-04-25T14:15:58;14.70;48.80
13440;DHT22;6792;57.698;11.946;2023-04-25T14:18:27;14.70;48.80
13440;DHT22;6792;57.698;11.946;2023-04-25T14:20:56;14.70;48.70
13440;DHT22;6792;57.698;11.946;2023-04-25T14:23:26;14.70;48.70
13440;DHT22;6792;57.698;11.946;2023-04-25T14:25:56;14.70;48.60
13440;DHT22;6792;57.698;11.946;2023-04-25T14:28:26;14.60;48.50
13440;DHT22;6792;57.698;11.946;2023-04-25T14:30:55;14.60;48.40
13440;DHT22;6792;57.698;11.946;2023-04-25T14:33:24;14.60;49.10
13440;DHT22;6792;57.698;11.946;2023-04-25T14:35:53;14.60;48.40
13440;DHT22;6792;57.698;11.946;2023-04-25T14:38:23;14.60;48.40
13440;DHT22;6792;57.698;11.946;2023-04-25T14:40:53;14.50;48.40
13440;DHT22;6792;57.698;11.946;2023-04-25T14:43:31;14.50;48.40
13440;DHT22;6792;57.698;11.946;2023-04-25T14:46:00;14.50;48.50
13440;DHT22;6792;57.698;11.946;2023-04-25T14:48:29;14.50;48.80
13440;DHT22;6792;57.698;11.946;2023-04-25T14:50:59;14.50;48.80
13440;DHT22;6792;57.698;11.946;2023-04-25T14:53:28;14.50;48.70
13440;DHT22;6792;57.698;11.946;2023-04-25T14:55:58;14.50;48.70
13440;DHT22;6792;57.698;11.946;2023-04-25T14:58:27;14.50;48.60
13440;DHT22;6792;57.698;11.946;2023-04-25T15:00:57;14.50;48.70
13440;DHT22;6792;57.698;11.946;2023-04-25T15:03:26;14.50;48.80
13440;DHT22;6792;57.698;11.946;2023-04-25T15:05:56;14.50;48.80
13440;DHT22;6792;57.698;11.946;2023-04-25T15:08:25;14.50;48.80
13440;DHT22;6792;57.698;11.946;2023-04-25T15:10:54;14.40;48.70
13440;DHT22;6792;57.698;11.946;2023-04-25T15:13:23;14.40;48.80
13440;DHT22;6792;57.698;11.946;2023-04-25T15:15:53;14.40;48.80
13440;DHT22;6792;57.698;11.946;2023-04-25T15:18:23;14.40;48.80
13440;DHT22;6792;57.698;11.946;2023-04-25T15:20:53;14.30;48.80
13440;DHT22;6792;57.698;11.946;2023-04-25T15:23:22;14.30;48.80
13440;DHT22;6792;57.698;11.946;2023-04-25T15:25:52;14.30;48.90
13440;DHT22;6792;57.698;11.946;2023-04-25T15:28:21;14.30;48.80
13440;DHT22;6792;57.698;11.946;2023-04-25T15:30:50;14.30;48.70
13440;DHT22;6792;57.698;11.946;2023-04-25T15:33:20;14.30;48.60
13440;DHT22;6792;57.698;11.946;2023-04-25T15:35:49;14.30;48.50
13440;DHT22;6792;57.698;11.946;2023-04-25T15:38:18;14.30;48.50
13440;DHT22;6792;57.698;11.946;2023-04-25T15:40:47;14.30;48.40
13440;DHT22;6792;57.698;11.946;2023-04-25T15:43:17;14.30;48.40
13440;DHT22;6792;57.698;11.946;2023-04-25T15:45:49;14.30;47.90
13440;DHT22;6792;57.698;11.946;2023-04-25T15:48:18;14.30;48.40
13440;DHT22;6792;57.698;11.946;2023-04-25T15:50:47;14.30;48.40
13440;DHT22;6792;57.698;11.946;2023-04-25T15:53:17;14.30;48.30
13440;DHT22;6792;57.698;11.946;2023-04-25T15:55:46;14.30;48.30
13440;DHT22;6792;57.698;11.946;2023-04-25T15:58:16;14.30;48.40